Time;durP1;ratioP1;P1;durP2;ratioP2;P2;SDS_P1;SDS_P2;PMS_P1;PMS_P2;Temp;Humidity;BMP_temperature;BMP_pressure;BME280_temperature;BME280_humidity;BME280_pressure;Samples;Min_cycle;Max_cycle;Signal;HPM_P1;HPM_P2
2023/07/11 00:00:20;;;;;;;8.45;5.95;;;21.90;64.20;;;;;;5128425;27;20562;-73
2023/07/11 00:02:49;;;;;;;7.55;5.20;;;21.90;64.20;;;;;;5130538;27;20490;-64
2023/07/11 00:05:18;;;;;;;6.63;4.85;;;21.80;64.40;;;;;;5130127;27;20051;-64
2023/07/11 00:07:46;;;;;;;7.95;5.00;;;21.80;64.50;;;;;;5127693;27;20070;-73
2023/07/11 00:10:15;;;;;;;6.80;4.78;;;21.70;64.90;;;;;;5140077;27;20106;-72
2023/07/11 00:12:42;;;;;;;7.03;4.97;;;21.70;65.00;;;;;;5130774;27;20124;-73
2023/07/11 00:15:11;;;;;;;6.75;4.60;;;21.70;65.10;;;;;;5130173;27;20047;-73
2023/07/11 00:17:38;;;;;;;6.70;4.75;;;21.70;65.20;;;;;;5127435;27;20075;-61
2023/07/11 00:20:09;;;;;;;6.97;4.25;;;21.70;65.30;;;;;;5124380;27;20564;-61
2023/07/11 00:22:36;;;;;;;8.20;4.53;;;21.60;65.40;;;;;;5116688;27;20070;-65
2023/07/11 00:25:04;;;;;;;6.85;4.63;;;21.60;65.60;;;;;;5126229;27;20055;-63
2023/07/11 00:27:32;;;;;;;6.35;4.03;;;21.60;65.50;;;;;;5130604;27;20061;-60
2023/07/11 00:30:06;;;;;;;7.38;4.75;;;21.60;65.40;;;;;;5120542;27;20074;-62
2023/07/11 00:32:34;;;;;;;6.40;4.28;;;21.60;65.50;;;;;;5137670;27;20096;-72
2023/07/11 00:35:01;;;;;;;5.80;4.40;;;21.60;65.60;;;;;;5128824;27;20039;-71
2023/07/11 00:37:29;;;;;;;5.78;4.25;;;21.50;65.80;;;;;;5132149;27;20057;-72
2023/07/11 00:39:57;;;;;;;;;;;21.50;65.90;;;;;;5131625;27;20127;-72
2023/07/11 00:42:24;;;;;;;5.80;4.05;;;21.40;65.90;;;;;;5124046;27;19919;-72
2023/07/11 00:44:55;;;;;;;6.78;4.43;;;21.40;66.00;;;;;;5129612;27;20050;-72
2023/07/11 00:47:25;;;;;;;6.57;4.60;;;21.40;66.10;;;;;;5118390;27;20043;-72
2023/07/11 00:49:57;;;;;;;6.57;4.17;;;21.40;66.00;;;;;;5127011;27;20079;-67
2023/07/11 00:52:26;;;;;;;6.20;4.68;;;21.30;66.10;;;;;;5127896;27;20051;-68
2023/07/11 00:54:59;;;;;;;6.60;4.78;;;21.30;66.30;;;;;;5128440;27;20131;-68
2023/07/11 00:57:28;;;;;;;6.65;4.80;;;21.30;66.50;;;;;;5116101;27;20060;-60
2023/07/11 00:59:56;;;;;;;8.40;5.35;;;21.20;66.70;;;;;;5119892;27;20067;-62
2023/07/11 01:02:26;;;;;;;6.60;4.70;;;21.20;66.80;;;;;;5111212;27;20474;-71
2023/07/11 01:04:55;;;;;;;6.57;4.40;;;21.10;67.00;;;;;;5114632;27;20043;-71
2023/07/11 01:07:27;;;;;;;6.68;4.80;;;21.10;67.20;;;;;;5116360;27;20146;-73
2023/07/11 01:09:55;;;;;;;7.30;4.35;;;21.10;67.30;;;;;;5109109;27;20077;-74
2023/07/11 01:12:23;;;;;;;6.20;4.55;;;21.00;67.30;;;;;;5107897;27;20044;-64
2023/07/11 01:14:51;;;;;;;6.90;4.82;;;21.00;67.40;;;;;;5115077;27;20079;-63
2023/07/11 01:17:27;;;;;;;6.25;4.43;;;21.00;67.30;;;;;;5126823;27;20081;-69
2023/07/11 01:19:58;;;;;;;7.32;5.22;;;20.90;67.50;;;;;;5113305;27;20062;-67
2023/07/11 01:22:29;;;;;;;8.30;5.18;;;21.00;67.30;;;;;;5112835;27;20059;-70
2023/07/11 01:24:57;;;;;;;7.63;5.80;;;20.90;67.40;;;;;;5110124;27;20510;-69
2023/07/11 01:27:25;;;;;;;8.30;5.57;;;20.90;67.50;;;;;;5130207;27;20047;-68
2023/07/11 01:29:53;;;;;;;7.70;5.75;;;20.80;67.50;;;;;;5130232;27;20066;-68
2023/07/11 01:32:20;;;;;;;7.68;5.60;;;20.80;67.80;;;;;;5137409;27;20043;-73
2023/07/11 01:34:47;;;;;;;8.88;6.30;;;20.80;67.90;;;;;;5128163;27;20063;-73
2023/07/11 01:37:14;;;;;;;9.23;5.50;;;20.80;67.80;;;;;;5125889;27;20095;-61
2023/07/11 01:39:42;;;;;;;6.88;5.60;;;20.80;67.80;;;;;;5129830;27;20049;-61
2023/07/11 01:42:10;;;;;;;8.23;5.53;;;20.70;67.90;;;;;;5127955;27;20470;-72
2023/07/11 01:44:37;;;;;;;6.93;5.18;;;20.60;68.20;;;;;;5128578;27;20128;-72
2023/07/11 01:47:06;;;;;;;7.80;5.13;;;20.60;68.40;;;;;;5117182;27;20058;-72
2023/07/11 01:49:33;;;;;;;7.57;5.88;;;20.60;68.40;;;;;;5128706;27;20081;-72
2023/07/11 01:52:06;;;;;;;8.65;5.15;;;20.60;68.30;;;;;;5111634;27;20058;-73
2023/07/11 01:54:33;;;;;;;6.57;4.70;;;20.60;68.30;;;;;;5119202;27;20502;-74
2023/07/11 01:57:01;;;;;;;7.70;5.32;;;20.60;68.50;;;;;;5120317;27;20043;-72
2023/07/11 01:59:29;;;;;;;8.38;5.20;;;20.50;68.60;;;;;;5108508;27;20055;-72
2023/07/11 02:01:56;;;;;;;6.65;4.97;;;20.50;68.70;;;;;;5102556;27;20483;-67
2023/07/11 02:04:24;;;;;;;7.18;4.97;;;20.50;68.70;;;;;;5107498;27;20039;-70
2023/07/11 02:06:52;;;;;;;7.03;5.10;;;20.40;68.70;;;;;;5123952;27;20051;-68
2023/07/11 02:09:21;;;;;;;8.10;5.03;;;20.40;69.00;;;;;;5107800;27;20047;-70
2023/07/11 02:11:48;;;;;;;7.60;5.43;;;20.30;69.10;;;;;;5107720;28;20062;-72
2023/07/11 02:14:18;;;;;;;7.18;5.20;;;20.30;69.20;;;;;;5112824;27;20043;-73
2023/07/11 02:16:46;;;;;;;8.35;5.18;;;20.30;69.30;;;;;;5128866;27;20051;-68
2023/07/11 02:19:14;;;;;;;5.70;4.25;;;20.20;69.40;;;;;;5119318;27;20044;-66
2023/07/11 02:21:40;;;;;;;7.05;5.18;;;20.20;69.50;;;;;;5123691;27;20108;-68
2023/07/11 02:24:09;;;;;;;10.73;5.70;;;20.30;69.60;;;;;;5127446;27;20125;-67
2023/07/11 02:26:36;;;;;;;6.97;4.90;;;20.20;69.60;;;;;;5127030;28;20482;-71
2023/07/11 02:29:03;;;;;;;11.38;5.90;;;20.20;69.40;;;;;;5127666;27;20470;-70
2023/07/11 02:31:33;;;;;;;7.65;5.47;;;20.20;69.40;;;;;;5127391;27;20042;-73
2023/07/11 02:34:00;;;;;;;6.85;5.20;;;20.20;69.40;;;;;;5121851;27;20077;-72
2023/07/11 02:36:27;;;;;;;7.47;5.22;;;20.10;69.60;;;;;;5122554;27;20507;-67
2023/07/11 02:38:55;;;;;;;8.88;5.40;;;20.10;69.70;;;;;;5125684;27;20048;-66
2023/07/11 02:41:22;;;;;;;8.20;5.10;;;20.10;69.70;;;;;;5130086;27;20044;-64
2023/07/11 02:43:49;;;;;;;7.10;5.10;;;20.10;69.80;;;;;;5131978;27;20047;-64
2023/07/11 02:46:16;;;;;;;8.15;5.00;;;20.00;69.90;;;;;;5131363;27;20069;-61
2023/07/11 02:48:45;;;;;;;8.40;5.07;;;20.10;70.10;;;;;;5130873;27;20043;-59
2023/07/11 02:51:12;;;;;;;7.85;4.78;;;20.10;70.00;;;;;;5129198;27;20108;-68
2023/07/11 02:53:39;;;;;;;7.72;5.60;;;20.00;70.10;;;;;;5129992;27;20051;-67
2023/07/11 02:56:06;;;;;;;8.63;4.85;;;20.00;70.20;;;;;;5127199;27;20043;-64
2023/07/11 02:58:33;;;;;;;7.85;4.97;;;20.00;70.40;;;;;;5128207;27;20043;-63
2023/07/11 03:01:01;;;;;;;6.35;4.60;;;19.90;70.40;;;;;;5127010;27;20042;-74
2023/07/11 03:03:28;;;;;;;6.65;5.22;;;19.90;70.60;;;;;;5132576;27;20044;-73
2023/07/11 03:05:57;;;;;;;8.27;4.75;;;19.80;70.80;;;;;;5130126;27;20055;-70
2023/07/11 03:08:24;;;;;;;7.50;4.97;;;19.70;70.90;;;;;;5130630;27;20055;-73
2023/07/11 03:10:51;;;;;;;7.18;5.32;;;19.70;71.00;;;;;;5125320;27;20047;-69
2023/07/11 03:13:19;;;;;;;9.32;5.40;;;19.70;70.90;;;;;;5132026;27;20039;-70
2023/07/11 03:15:46;;;;;;;6.65;4.88;;;19.70;71.00;;;;;;5122518;27;20171;-63
2023/07/11 03:18:14;;;;;;;7.38;4.93;;;19.60;71.20;;;;;;5101652;27;20059;-65
2023/07/11 03:20:42;;;;;;;7.15;5.15;;;19.60;71.20;;;;;;5122423;27;20052;-62
2023/07/11 03:23:13;;;;;;;6.78;5.20;;;19.60;71.20;;;;;;5119642;27;20559;-61
2023/07/11 03:25:41;;;;;;;7.75;4.88;;;19.60;71.30;;;;;;5123894;27;20047;-69
2023/07/11 03:28:08;;;;;;;6.45;4.75;;;19.60;71.30;;;;;;5129949;27;20045;-69
2023/07/11 03:30:41;;;;;;;7.53;5.13;;;19.60;71.30;;;;;;5124651;27;20154;-68
2023/07/11 03:33:08;;;;;;;6.90;5.20;;;19.60;71.40;;;;;;5127826;27;20047;-68
2023/07/11 03:35:36;;;;;;;7.47;5.05;;;19.60;71.50;;;;;;5114282;27;20066;-69
2023/07/11 03:38:02;;;;;;;8.05;5.20;;;19.60;71.50;;;;;;5109810;27;20510;-69
2023/07/11 03:40:31;;;;;;;7.18;5.15;;;19.50;71.50;;;;;;5110943;27;20046;-68
2023/07/11 03:42:58;;;;;;;7.93;5.22;;;19.50;71.60;;;;;;5110175;27;20054;-69
2023/07/11 03:45:25;;;;;;;9.50;5.50;;;19.50;71.60;;;;;;5108455;27;20255;-68
2023/07/11 03:47:53;;;;;;;7.07;5.30;;;19.50;71.70;;;;;;5124783;27;20052;-68
2023/07/11 03:50:20;;;;;;;7.10;5.28;;;19.50;71.70;;;;;;5105834;27;20142;-68
2023/07/11 03:52:47;;;;;;;7.78;5.20;;;19.50;71.80;;;;;;5114450;27;20059;-67
2023/07/11 03:55:14;;;;;;;8.20;5.78;;;19.40;71.90;;;;;;5120546;27;20056;-66
2023/07/11 03:57:43;;;;;;;7.32;5.15;;;19.40;71.90;;;;;;5110208;27;20143;-71
2023/07/11 04:00:11;;;;;;;8.40;5.05;;;19.50;71.80;;;;;;5119122;27;20180;-71
2023/07/11 04:02:41;;;;;;;7.93;5.10;;;19.50;71.70;;;;;;5128706;27;20039;-67
2023/07/11 04:05:08;;;;;;;7.57;5.32;;;19.50;71.80;;;;;;5129504;27;20035;-67
2023/07/11 04:07:35;;;;;;;9.27;5.82;;;19.40;71.80;;;;;;5123506;27;20489;-71
2023/07/11 04:10:02;;;;;;;9.02;5.22;;;19.50;71.90;;;;;;5108676;27;20047;-70
2023/07/11 04:12:29;;;;;;;7.20;5.35;;;19.50;71.90;;;;;;5123316;27;20039;-69
2023/07/11 04:14:57;;;;;;;7.93;5.45;;;19.50;72.00;;;;;;5126259;27;20043;-68
2023/07/11 04:17:24;;;;;;;6.63;5.10;;;19.40;72.10;;;;;;5128274;27;20053;-69
2023/07/11 04:19:51;;;;;;;7.28;5.38;;;19.40;72.20;;;;;;5124265;27;20749;-67
2023/07/11 04:22:18;;;;;;;7.57;5.00;;;19.40;72.20;;;;;;5127387;27;20497;-72
2023/07/11 04:24:45;;;;;;;6.95;5.32;;;19.40;72.20;;;;;;5131034;27;20058;-72
2023/07/11 04:27:12;;;;;;;7.65;5.55;;;19.40;72.10;;;;;;5129876;27;20057;-69
2023/07/11 04:29:39;;;;;;;7.55;5.57;;;19.50;72.20;;;;;;5130009;27;20716;-68
2023/07/11 04:32:08;;;;;;;8.23;5.72;;;19.40;72.20;;;;;;5117372;27;20534;-66
2023/07/11 04:34:35;;;;;;;8.25;5.50;;;19.50;72.40;;;;;;5104684;27;20048;-67
2023/07/11 04:37:02;;;;;;;6.38;4.72;;;19.50;72.40;;;;;;5109668;27;20569;-68
2023/07/11 04:39:28;;;;;;;6.88;5.13;;;19.50;72.40;;;;;;5108046;27;20059;-67
2023/07/11 04:41:55;;;;;;;9.15;5.60;;;19.50;72.30;;;;;;5106469;27;20067;-68
2023/07/11 04:44:22;;;;;;;8.48;5.75;;;19.50;72.30;;;;;;5107171;27;20039;-67
2023/07/11 04:46:49;;;;;;;6.93;5.43;;;19.50;72.30;;;;;;5106735;27;20054;-61
2023/07/11 04:49:17;;;;;;;8.10;5.40;;;19.60;72.20;;;;;;5106510;27;20052;-60
2023/07/11 04:51:44;;;;;;;7.72;5.53;;;19.60;72.10;;;;;;5107543;28;20403;-68
2023/07/11 04:54:11;;;;;;;8.45;5.53;;;19.60;71.90;;;;;;5109728;27;20127;-66
2023/07/11 04:56:40;;;;;;;8.55;5.85;;;19.70;71.90;;;;;;5105121;27;20134;-73
2023/07/11 04:59:07;;;;;;;8.55;6.13;;;19.60;71.80;;;;;;5109201;28;20054;-72
2023/07/11 05:01:34;;;;;;;7.90;5.68;;;19.70;71.50;;;;;;5110904;27;20047;-71
2023/07/11 05:04:01;;;;;;;8.63;6.20;;;19.70;71.70;;;;;;5108569;28;20108;-70
2023/07/11 05:06:29;;;;;;;7.63;5.40;;;19.70;71.90;;;;;;5115727;27;20043;-61
2023/07/11 05:08:56;;;;;;;8.90;6.43;;;19.80;71.80;;;;;;5124374;27;20077;-61
2023/07/11 05:11:23;;;;;;;7.65;5.70;;;19.80;71.80;;;;;;5127868;27;20050;-66
2023/07/11 05:13:51;;;;;;;8.45;5.80;;;19.80;71.80;;;;;;5129053;27;20046;-67
2023/07/11 05:16:19;;;;;;;8.80;5.50;;;19.80;71.90;;;;;;5128738;27;20042;-61
2023/07/11 05:18:48;;;;;;;9.90;5.72;;;19.90;71.70;;;;;;5129298;27;20067;-61
2023/07/11 05:21:17;;;;;;;7.80;5.97;;;20.00;71.70;;;;;;5128265;27;20065;-69
2023/07/11 05:23:46;;;;;;;7.90;5.20;;;19.90;71.80;;;;;;5127460;27;20066;-68
2023/07/11 05:26:14;;;;;;;8.90;5.68;;;19.90;71.90;;;;;;5121790;27;20387;-72
2023/07/11 05:28:41;;;;;;;7.72;5.70;;;19.90;72.30;;;;;;5129595;27;20478;-73
2023/07/11 05:31:09;;;;;;;7.07;5.78;;;19.90;72.40;;;;;;5126065;27;20394;-75
2023/07/11 05:33:37;;;;;;;8.38;6.15;;;20.00;72.40;;;;;;5127949;27;20062;-74
2023/07/11 05:36:15;;;;;;;8.65;5.45;;;20.00;72.50;;;;;;5129366;27;20409;-62
2023/07/11 05:38:42;;;;;;;8.15;5.55;;;20.00;72.70;;;;;;5127731;27;20101;-64
2023/07/11 05:41:11;;;;;;;8.60;5.75;;;20.00;72.40;;;;;;5127599;27;20059;-70
2023/07/11 05:43:38;;;;;;;8.43;6.15;;;20.00;72.70;;;;;;5128554;27;20035;-68
2023/07/11 05:46:04;;;;;;;7.05;4.93;;;20.10;72.20;;;;;;5128771;27;20047;-62
2023/07/11 05:48:32;;;;;;;9.00;5.32;;;20.10;72.20;;;;;;5130188;27;20035;-61
2023/07/11 05:51:00;;;;;;;8.80;5.20;;;20.20;72.50;;;;;;5124879;27;20043;-69
2023/07/11 05:53:28;;;;;;;7.22;5.53;;;20.20;72.40;;;;;;5129275;27;20474;-69
2023/07/11 05:55:57;;;;;;;6.55;5.07;;;20.20;72.10;;;;;;5128417;27;20072;-66
2023/07/11 05:58:25;;;;;;;7.22;5.35;;;20.20;72.30;;;;;;5129528;27;20047;-67
2023/07/11 06:00:53;;;;;;;7.15;5.32;;;20.30;72.30;;;;;;5127531;27;20161;-67
2023/07/11 06:03:20;;;;;;;7.45;5.72;;;20.30;72.40;;;;;;5109362;27;20395;-66
2023/07/11 06:05:48;;;;;;;6.43;5.38;;;20.30;72.40;;;;;;5107801;28;20481;-67
2023/07/11 06:08:15;;;;;;;7.40;5.05;;;20.30;72.40;;;;;;5105955;27;20119;-68
2023/07/11 06:10:43;;;;;;;8.13;5.35;;;20.40;72.30;;;;;;5107532;28;20043;-68
2023/07/11 06:13:12;;;;;;;7.82;5.70;;;20.40;72.40;;;;;;5106621;28;20043;-68
2023/07/11 06:15:41;;;;;;;9.38;5.65;;;20.50;72.30;;;;;;5102286;28;20471;-70
2023/07/11 06:18:08;;;;;;;7.15;5.03;;;20.60;71.60;;;;;;5125175;27;20047;-72
2023/07/11 06:20:35;;;;;;;7.93;5.72;;;20.60;71.90;;;;;;5129391;27;20044;-72
2023/07/11 06:23:02;;;;;;;7.30;5.00;;;20.60;71.80;;;;;;5125811;27;20031;-72
2023/07/11 06:25:28;;;;;;;7.25;5.40;;;20.60;71.90;;;;;;5103745;28;20040;-74
2023/07/11 06:27:55;;;;;;;7.95;5.45;;;20.70;71.80;;;;;;5116433;27;20061;-67
2023/07/11 06:30:22;;;;;;;8.63;5.47;;;20.80;72.10;;;;;;5107068;27;20048;-68
2023/07/11 06:32:50;;;;;;;7.07;5.15;;;20.80;72.30;;;;;;5106231;27;20417;-64
2023/07/11 06:35:17;;;;;;;7.13;5.05;;;21.00;72.30;;;;;;5104490;27;20484;-65
2023/07/11 06:37:44;;;;;;;7.53;5.30;;;21.10;72.00;;;;;;5122617;27;20240;-69
2023/07/11 06:40:12;;;;;;;7.80;5.30;;;21.20;71.90;;;;;;5114420;27;20348;-69
2023/07/11 06:42:39;;;;;;;7.97;5.78;;;21.40;71.40;;;;;;5100796;27;20202;-64
2023/07/11 06:45:10;;;;;;;7.03;4.97;;;21.60;70.90;;;;;;5096968;27;20048;-65
2023/07/11 06:47:37;;;;;;;8.70;5.50;;;21.70;70.60;;;;;;5104783;27;20047;-61
2023/07/11 06:50:06;;;;;;;7.65;5.40;;;21.90;70.60;;;;;;5111473;27;20129;-61
2023/07/11 06:52:33;;;;;;;7.28;5.43;;;22.10;69.80;;;;;;5108111;27;20539;-73
2023/07/11 06:55:00;;;;;;;8.98;5.50;;;22.30;69.70;;;;;;5119264;27;20057;-72
2023/07/11 06:57:27;;;;;;;7.32;5.70;;;22.40;69.00;;;;;;5112810;27;20063;-61
2023/07/11 06:59:54;;;;;;;7.80;5.60;;;22.60;68.90;;;;;;5105029;28;20056;-59
2023/07/11 07:02:21;;;;;;;7.22;5.32;;;22.70;68.50;;;;;;5127088;27;20051;-68
2023/07/11 07:04:48;;;;;;;7.85;5.28;;;22.90;68.10;;;;;;5121551;27;20040;-67
2023/07/11 07:07:16;;;;;;;8.05;5.93;;;23.00;68.20;;;;;;5123762;27;20480;-61
2023/07/11 07:09:43;;;;;;;7.60;5.32;;;23.20;67.40;;;;;;5119544;27;20043;-61
2023/07/11 07:12:10;;;;;;;7.15;5.50;;;23.40;67.30;;;;;;5125567;27;20051;-72
2023/07/11 07:14:37;;;;;;;9.73;5.57;;;23.50;67.20;;;;;;5123225;27;20234;-75
2023/07/11 07:17:05;;;;;;;7.20;5.15;;;23.60;66.50;;;;;;5134985;27;20074;-69
2023/07/11 07:19:32;;;;;;;8.88;5.30;;;23.80;65.90;;;;;;5124179;27;20069;-69
2023/07/11 07:21:58;;;;;;;8.77;5.28;;;24.00;65.80;;;;;;5142332;27;20489;-68
2023/07/11 07:24:27;;;;;;;7.43;4.85;;;24.10;65.40;;;;;;5142802;27;20517;-68
2023/07/11 07:26:54;;;;;;;7.05;5.10;;;24.30;65.30;;;;;;5135934;27;20054;-67
2023/07/11 07:29:21;;;;;;;7.95;5.53;;;24.50;65.00;;;;;;5136663;27;20096;-69
2023/07/11 07:31:48;;;;;;;7.80;5.50;;;24.50;64.50;;;;;;5141802;27;20623;-65
2023/07/11 07:34:15;;;;;;;6.43;5.03;;;24.70;64.10;;;;;;5145964;27;20050;-64
2023/07/11 07:36:42;;;;;;;7.45;5.78;;;24.90;63.40;;;;;;5143928;27;20042;-68
2023/07/11 07:39:09;;;;;;;6.25;4.95;;;25.10;62.70;;;;;;5148910;27;20512;-69
2023/07/11 07:41:37;;;;;;;9.77;5.07;;;25.30;62.30;;;;;;5147397;27;20027;-69
2023/07/11 07:44:04;;;;;;;7.93;4.88;;;25.30;62.10;;;;;;5144946;27;20050;-67
2023/07/11 07:46:31;;;;;;;7.38;4.88;;;25.50;61.70;;;;;;5141427;27;20074;-70
2023/07/11 07:48:58;;;;;;;8.88;5.50;;;25.70;60.90;;;;;;5150569;27;20061;-68
2023/07/11 07:51:25;;;;;;;6.18;4.97;;;25.80;60.80;;;;;;5144045;27;20051;-61
2023/07/11 07:53:52;;;;;;;9.63;5.47;;;26.00;60.70;;;;;;5149308;27;20053;-59
2023/07/11 07:56:21;;;;;;;6.15;5.03;;;26.10;60.50;;;;;;5149514;27;20047;-64
2023/07/11 07:58:50;;;;;;;7.10;5.22;;;26.30;59.70;;;;;;5146172;27;20054;-64
2023/07/11 08:01:20;;;;;;;7.22;4.80;;;26.40;60.00;;;;;;5149074;27;20066;-73
2023/07/11 08:03:47;;;;;;;6.25;5.30;;;26.50;59.60;;;;;;5147639;27;20046;-73
2023/07/11 08:06:16;;;;;;;7.15;5.35;;;26.50;59.30;;;;;;5147399;27;20050;-68
2023/07/11 08:08:44;;;;;;;8.27;5.68;;;26.60;59.10;;;;;;5144869;27;20147;-70
2023/07/11 08:11:11;;;;;;;8.23;5.43;;;26.80;59.10;;;;;;5119234;27;20043;-67
2023/07/11 08:13:38;;;;;;;9.90;5.80;;;26.90;58.90;;;;;;5128754;27;20054;-68
2023/07/11 08:16:06;;;;;;;6.40;5.00;;;27.00;58.70;;;;;;5122268;27;20409;-69
2023/07/11 08:18:33;;;;;;;8.07;5.37;;;27.10;58.20;;;;;;5145201;27;20047;-69
2023/07/11 08:21:00;;;;;;;9.30;5.63;;;27.20;58.20;;;;;;5149501;27;20066;-65
2023/07/11 08:23:27;;;;;;;7.13;5.20;;;27.30;57.70;;;;;;5147052;27;20186;-64
2023/07/11 08:25:55;;;;;;;6.43;5.22;;;27.50;57.30;;;;;;5147419;27;20141;-62
2023/07/11 08:28:22;;;;;;;7.60;5.18;;;27.60;56.90;;;;;;5149991;27;20047;-62
2023/07/11 08:30:59;;;;;;;10.23;5.93;;;27.60;55.80;;;;;;5151875;27;20057;-65
2023/07/11 08:33:27;;;;;;;8.45;5.40;;;27.80;55.40;;;;;;5132582;27;20117;-66
2023/07/11 08:35:57;;;;;;;6.73;5.07;;;27.90;55.00;;;;;;5145591;27;20061;-65
2023/07/11 08:38:24;;;;;;;7.47;5.30;;;28.00;55.10;;;;;;5148899;27;20042;-65
2023/07/11 08:40:51;;;;;;;6.65;4.97;;;28.10;54.30;;;;;;5146497;27;20054;-76
2023/07/11 08:43:23;;;;;;;7.85;4.95;;;28.20;53.80;;;;;;5148992;27;20406;-73
2023/07/11 08:45:55;;;;;;;7.22;5.00;;;28.40;53.80;;;;;;5147988;27;20050;-66
2023/07/11 08:48:28;;;;;;;8.93;5.22;;;28.50;52.60;;;;;;5123251;27;20111;-65
2023/07/11 08:51:05;;;;;;;7.07;4.95;;;28.60;51.70;;;;;;5149161;27;20058;-67
2023/07/11 08:53:36;;;;;;;6.03;4.60;;;28.80;51.40;;;;;;5150287;27;20047;-68
2023/07/11 08:56:11;;;;;;;5.97;4.45;;;28.90;50.50;;;;;;5146884;27;20065;-65
2023/07/11 08:58:40;;;;;;;7.25;4.57;;;29.00;50.60;;;;;;5149644;27;20390;-67
2023/07/11 09:01:25;;;;;;;6.72;4.70;;;29.10;50.80;;;;;;5147849;27;20062;-73
2023/07/11 09:03:52;;;;;;;6.10;4.72;;;29.20;50.50;;;;;;5150861;27;20039;-73
2023/07/11 09:06:24;;;;;;;5.53;4.45;;;29.30;50.20;;;;;;5143498;27;20042;-73
2023/07/11 09:08:54;;;;;;;7.40;4.70;;;29.40;50.00;;;;;;5146923;27;20129;-72
2023/07/11 09:11:27;;;;;;;7.25;5.00;;;29.50;49.70;;;;;;5145870;27;20061;-69
2023/07/11 09:14:05;;;;;;;7.00;4.32;;;29.60;49.50;;;;;;5143440;27;20073;-68
2023/07/11 09:16:35;;;;;;;5.47;4.35;;;29.70;49.40;;;;;;5066518;27;20875;-68
2023/07/11 09:19:15;;;;;;;6.78;4.90;;;29.80;49.00;;;;;;5057485;27;20907;-67
2023/07/11 09:21:53;;;;;;;7.63;5.18;;;29.90;48.60;;;;;;5053660;27;20085;-62
2023/07/11 09:24:31;;;;;;;6.85;4.97;;;29.90;48.20;;;;;;5047860;27;21284;-61
2023/07/11 09:27:02;;;;;;;;;;;30.10;48.40;;;;;;5052237;27;20150;-68
2023/07/11 09:29:30;;;;;;;6.93;4.95;;;30.10;47.30;;;;;;5049731;27;20080;-68
2023/07/11 09:31:59;;;;;;;8.05;5.05;;;30.20;47.00;;;;;;5053056;27;20651;-67
2023/07/11 09:34:30;;;;;;;6.30;4.85;;;30.30;46.90;;;;;;5053041;27;20089;-68
2023/07/11 09:37:00;;;;;;;5.88;4.55;;;30.40;46.90;;;;;;5052956;27;21636;-73
2023/07/11 09:39:35;;;;;;;5.95;4.40;;;30.40;46.80;;;;;;5048578;27;20675;-73
2023/07/11 09:42:12;;;;;;;6.78;4.85;;;30.50;46.00;;;;;;5048018;27;20654;-72
2023/07/11 09:44:39;;;;;;;6.97;5.22;;;30.60;45.90;;;;;;5047825;27;21882;-74
2023/07/11 09:47:17;;;;;;;7.90;4.72;;;30.70;46.20;;;;;;5051014;27;20743;-72
2023/07/11 09:49:48;;;;;;;7.32;5.13;;;30.80;45.90;;;;;;5052935;27;20238;-72
2023/07/11 09:52:26;;;;;;;5.25;4.22;;;30.90;46.10;;;;;;5049593;27;20152;-72
2023/07/11 09:54:54;;;;;;;6.20;4.70;;;30.90;45.70;;;;;;5048949;27;20805;-71
2023/07/11 09:57:21;;;;;;;7.32;4.45;;;31.00;45.30;;;;;;5048484;27;21054;-65
2023/07/11 09:59:58;;;;;;;5.88;4.45;;;31.10;44.10;;;;;;5019213;27;20054;-64
2023/07/11 10:02:25;;;;;;;8.57;4.45;;;31.20;44.70;;;;;;5052548;27;20667;-66
2023/07/11 10:04:56;;;;;;;6.78;4.50;;;31.30;44.20;;;;;;5136219;27;20046;-64
2023/07/11 10:07:28;;;;;;;5.95;4.00;;;31.40;44.50;;;;;;5142670;27;20492;-73
2023/07/11 10:10:02;;;;;;;6.03;4.50;;;31.50;43.90;;;;;;5132440;27;20100;-75
2023/07/11 10:12:30;;;;;;;6.80;4.10;;;31.60;43.60;;;;;;5137245;27;20042;-76
2023/07/11 10:14:59;;;;;;;6.95;4.57;;;31.60;43.20;;;;;;5136735;27;20042;-74
2023/07/11 10:17:31;;;;;;;5.80;4.43;;;31.60;43.30;;;;;;5139620;27;20048;-75
2023/07/11 10:20:00;;;;;;;7.40;4.88;;;31.70;43.20;;;;;;5139350;27;20054;-75
2023/07/11 10:22:30;;;;;;;6.63;4.63;;;31.70;43.10;;;;;;5137158;27;20043;-68
2023/07/11 10:25:01;;;;;;;7.97;6.53;;;31.70;43.40;;;;;;5142951;27;20363;-69
2023/07/11 10:27:32;;;;;;;8.15;6.50;;;31.70;42.90;;;;;;5148850;27;20495;-61
2023/07/11 10:30:03;;;;;;;7.10;5.88;;;31.80;42.40;;;;;;5146782;27;20526;-62
2023/07/11 10:32:37;;;;;;;8.05;6.35;;;31.90;42.80;;;;;;5143436;27;20046;-60
2023/07/11 10:35:10;;;;;;;9.48;8.00;;;32.00;42.70;;;;;;5147663;27;20045;-61
2023/07/11 10:37:42;;;;;;;8.95;8.00;;;32.00;42.50;;;;;;5147854;27;20045;-62
2023/07/11 10:40:18;;;;;;;8.60;7.15;;;32.00;42.80;;;;;;5145121;27;20039;-61
2023/07/11 10:42:52;;;;;;;9.98;8.15;;;32.10;42.10;;;;;;5147444;27;20051;-62
2023/07/11 10:45:24;;;;;;;9.75;8.60;;;32.20;42.80;;;;;;5142927;27;20070;-71
2023/07/11 10:48:00;;;;;;;9.02;7.00;;;32.00;43.10;;;;;;5144558;27;20099;-72
2023/07/11 10:50:38;;;;;;;8.73;6.03;;;31.70;42.40;;;;;;5145816;27;20651;-73
2023/07/11 10:53:17;;;;;;;8.33;6.10;;;31.80;42.70;;;;;;5144237;27;20050;-73
2023/07/11 10:55:51;;;;;;;7.85;6.40;;;31.90;42.40;;;;;;5143133;27;20046;-74
2023/07/11 10:58:21;;;;;;;8.95;6.55;;;32.10;43.20;;;;;;5140359;27;20042;-73
2023/07/11 11:00:58;;;;;;;8.90;7.05;;;32.30;42.80;;;;;;5146603;27;20046;-73
2023/07/11 11:03:37;;;;;;;8.73;7.15;;;32.30;43.10;;;;;;5145346;27;20042;-71
2023/07/11 11:06:24;;;;;;;8.45;6.22;;;32.40;42.70;;;;;;5152597;27;20158;-63
2023/07/11 11:09:11;;;;;;;9.32;6.22;;;32.40;42.50;;;;;;5149802;27;20055;-61
2023/07/11 11:11:52;;;;;;;7.32;5.55;;;32.50;42.30;;;;;;5138930;27;20502;-74
2023/07/11 11:14:23;;;;;;;8.55;6.97;;;32.50;42.00;;;;;;5141854;27;20043;-74
2023/07/11 11:17:06;;;;;;;8.50;6.85;;;32.60;41.40;;;;;;5144987;27;20063;-60
2023/07/11 11:19:59;;;;;;;9.15;6.18;;;32.70;41.60;;;;;;5140230;27;20054;-61
2023/07/11 11:22:44;;;;;;;7.75;5.63;;;32.80;40.90;;;;;;5138967;27;20039;-74
2023/07/11 11:25:23;;;;;;;7.38;5.55;;;32.90;40.80;;;;;;5146848;27;20054;-76
2023/07/11 11:27:59;;;;;;;8.73;6.68;;;33.00;41.20;;;;;;5146398;27;20505;-67
2023/07/11 11:30:42;;;;;;;9.50;6.72;;;32.90;40.70;;;;;;5149065;27;20050;-62
2023/07/11 11:33:22;;;;;;;7.00;5.88;;;32.90;41.00;;;;;;5149612;27;20053;-61
2023/07/11 11:35:57;;;;;;;8.80;6.00;;;32.80;41.50;;;;;;5151864;27;20050;-61
2023/07/11 11:38:51;;;;;;;7.32;5.18;;;32.80;41.20;;;;;;5148136;27;20057;-63
2023/07/11 11:41:25;;;;;;;6.50;5.10;;;32.80;40.90;;;;;;5145156;27;20043;-74
2023/07/11 11:43:53;;;;;;;7.97;5.57;;;33.00;39.50;;;;;;5139908;27;20059;-75
2023/07/11 11:46:37;;;;;;;;;;;33.10;40.00;;;;;;5015368;27;21637;-67
2023/07/11 11:49:25;;;;;;;6.32;4.90;;;33.20;39.80;;;;;;4970100;22;19935;-68
2023/07/11 11:51:55;;;;;;;7.97;5.15;;;33.30;40.60;;;;;;4932716;28;20136;-73
2023/07/11 11:55:19;;;;;;;6.68;4.80;;;33.30;39.20;;;;;;4937220;27;20056;-73
2023/07/11 11:57:50;;;;;;;6.20;4.95;;;33.30;40.20;;;;;;4939005;27;20137;-73
2023/07/11 12:00:38;;;;;;;8.02;5.22;;;33.20;40.10;;;;;;4966090;28;20607;-69
2023/07/11 12:03:28;;;;;;;9.32;8.38;;;33.20;40.00;;;;;;4943644;28;20191;-68
2023/07/11 12:06:21;;;;;;;9.13;8.23;;;33.30;40.40;;;;;;4963566;28;20382;-72
2023/07/11 12:09:24;;;;;;;9.82;7.70;;;33.20;39.30;;;;;;5046512;27;20493;-72
2023/07/11 12:12:07;;;;;;;11.50;8.18;;;33.20;39.50;;;;;;5097246;27;20047;-71
2023/07/11 12:14:43;;;;;;;11.10;9.43;;;33.10;39.70;;;;;;5095907;27;20058;-72
2023/07/11 12:17:51;;;;;;;10.23;8.30;;;33.00;40.30;;;;;;5110100;27;20065;-72
2023/07/11 12:20:23;;;;;;;9.38;8.38;;;33.00;40.10;;;;;;5108212;27;20133;-72
2023/07/11 12:23:14;;;;;;;8.80;7.90;;;33.00;40.00;;;;;;5101797;27;20060;-72
2023/07/11 12:25:41;;;;;;;8.95;7.55;;;33.00;40.10;;;;;;5089951;27;20048;-66
2023/07/11 12:28:23;;;;;;;9.80;8.10;;;33.00;39.20;;;;;;5101932;27;20043;-67
2023/07/11 12:31:06;;;;;;;9.52;7.82;;;33.10;39.00;;;;;;5115123;27;20550;-69
2023/07/11 12:33:35;;;;;;;8.05;6.65;;;33.30;39.20;;;;;;5109431;27;20043;-69
2023/07/11 12:36:27;;;;;;;8.13;6.85;;;33.30;39.70;;;;;;5103077;27;20059;-72
2023/07/11 12:38:59;;;;;;;8.13;6.22;;;33.50;38.10;;;;;;5115913;27;20055;-73
2023/07/11 12:41:38;;;;;;;9.35;5.88;;;33.50;38.60;;;;;;5115328;27;20046;-73
2023/07/11 12:45:02;;;;;;;7.53;6.10;;;33.40;39.50;;;;;;5102340;27;20058;-69
2023/07/11 12:47:31;;;;;;;7.57;6.20;;;33.30;38.60;;;;;;5110299;27;20088;-69
2023/07/11 12:49:59;;;;;;;8.25;6.38;;;33.30;39.30;;;;;;5118534;27;20043;-68
2023/07/11 12:52:27;;;;;;;8.85;6.20;;;33.20;40.20;;;;;;5111054;27;20040;-72
2023/07/11 12:54:54;;;;;;;7.60;6.40;;;33.20;39.90;;;;;;5112486;27;20060;-74
2023/07/11 12:57:26;;;;;;;8.35;6.22;;;33.20;39.00;;;;;;5114075;27;20068;-74
2023/07/11 12:59:53;;;;;;;6.80;5.80;;;33.30;39.10;;;;;;5114057;27;20040;-73
2023/07/11 13:02:27;;;;;;;7.45;6.28;;;33.20;38.60;;;;;;5114499;27;20056;-73
2023/07/11 13:04:58;;;;;;;6.95;6.18;;;33.20;38.40;;;;;;5115181;27;20054;-73